臺東航空站 - ATIS

METAR RCFN 161200Z 27003KT 6000 -RA SCT015 BKN020 OVC040 21/20 Q1020 NOSIG RMK A3012=

站台狀態:Online
最後更新:2018-12-16 23:00:02